sensor_id;sensor_type;location;lat;lon;timestamp;pressure;altitude;pressure_sealevel;temperature;humidity
25130;BME280;13308;50.860;13.664;2023-12-20T06:29:56;96224.31;;;3.61;100.00
25130;BME280;13308;50.860;13.664;2023-12-20T06:32:21;96215.75;;;3.66;100.00
25130;BME280;13308;50.860;13.664;2023-12-20T06:34:48;96220.81;;;3.71;100.00
25130;BME280;13308;50.860;13.664;2023-12-20T06:37:14;96222.75;;;3.74;100.00
25130;BME280;13308;50.860;13.664;2023-12-20T06:39:40;96235.25;;;3.85;100.00
25130;BME280;13308;50.860;13.664;2023-12-20T06:42:06;96244.59;;;3.84;100.00
25130;BME280;13308;50.860;13.664;2023-12-20T06:44:31;96251.63;;;3.85;100.00
25130;BME280;13308;50.860;13.664;2023-12-20T06:46:57;96253.97;;;3.87;100.00
25130;BME280;13308;50.860;13.664;2023-12-20T06:49:22;96248.88;;;3.85;100.00
25130;BME280;13308;50.860;13.664;2023-12-20T06:51:47;96257.06;;;3.96;100.00
25130;BME280;13308;50.860;13.664;2023-12-20T06:54:12;96257.44;;;3.91;100.00
25130;BME280;13308;50.860;13.664;2023-12-20T06:56:38;96259.78;;;3.89;100.00
25130;BME280;13308;50.860;13.664;2023-12-20T06:59:03;96260.19;;;3.91;100.00
25130;BME280;13308;50.860;13.664;2023-12-20T07:01:28;96259.78;;;3.92;100.00
25130;BME280;13308;50.860;13.664;2023-12-20T07:03:54;96250.81;;;3.92;100.00
25130;BME280;13308;50.860;13.664;2023-12-20T07:06:19;96260.59;;;3.93;100.00
25130;BME280;13308;50.860;13.664;2023-12-20T07:08:45;96269.16;;;3.95;100.00
25130;BME280;13308;50.860;13.664;2023-12-20T07:11:11;96274.22;;;4.00;100.00
25130;BME280;13308;50.860;13.664;2023-12-20T07:13:36;96266.81;;;4.04;100.00
25130;BME280;13308;50.860;13.664;2023-12-20T07:16:01;96275.78;;;4.04;100.00
25130;BME280;13308;50.860;13.664;2023-12-20T07:18:27;96272.66;;;4.06;100.00
25130;BME280;13308;50.860;13.664;2023-12-20T07:20:52;96274.22;;;4.07;100.00
25130;BME280;13308;50.860;13.664;2023-12-20T07:23:19;96294.50;;;4.13;100.00
25130;BME280;13308;50.860;13.664;2023-12-20T07:25:45;96289.81;;;4.17;100.00
25130;BME280;13308;50.860;13.664;2023-12-20T07:28:10;96294.47;;;4.23;100.00
25130;BME280;13308;50.860;13.664;2023-12-20T07:30:36;96286.69;;;4.22;100.00
25130;BME280;13308;50.860;13.664;2023-12-20T07:33:02;96283.19;;;4.25;100.00
25130;BME280;13308;50.860;13.664;2023-12-20T07:35:28;96276.19;;;4.24;100.00
25130;BME280;13308;50.860;13.664;2023-12-20T07:37:53;96283.94;;;4.25;100.00
25130;BME280;13308;50.860;13.664;2023-12-20T07:40:19;96290.19;;;4.33;100.00
25130;BME280;13308;50.860;13.664;2023-12-20T07:42:44;96290.59;;;4.35;100.00
25130;BME280;13308;50.860;13.664;2023-12-20T07:45:09;96288.25;;;4.33;100.00
25130;BME280;13308;50.860;13.664;2023-12-20T07:47:36;96295.28;;;4.34;100.00
25130;BME280;13308;50.860;13.664;2023-12-20T07:50:01;96299.94;;;4.34;100.00
25130;BME280;13308;50.860;13.664;2023-12-20T07:52:28;96290.59;;;4.35;100.00
25130;BME280;13308;50.860;13.664;2023-12-20T07:54:53;96291.34;;;4.39;100.00
25130;BME280;13308;50.860;13.664;2023-12-20T07:57:19;96279.25;;;4.40;100.00
25130;BME280;13308;50.860;13.664;2023-12-20T07:59:44;96278.13;;;4.41;100.00
25130;BME280;13308;50.860;13.664;2023-12-20T08:02:09;96281.22;;;4.39;100.00
25130;BME280;13308;50.860;13.664;2023-12-20T08:04:35;96272.63;;;4.34;100.00
25130;BME280;13308;50.860;13.664;2023-12-20T08:07:00;96269.53;;;4.32;100.00
25130;BME280;13308;50.860;13.664;2023-12-20T08:09:26;96275.75;;;4.25;100.00
25130;BME280;13308;50.860;13.664;2023-12-20T08:11:51;96276.94;;;4.24;100.00
25130;BME280;13308;50.860;13.664;2023-12-20T08:14:16;96269.94;;;4.20;100.00
25130;BME280;13308;50.860;13.664;2023-12-20T08:16:41;96287.47;;;4.22;100.00
25130;BME280;13308;50.860;13.664;2023-12-20T08:19:07;96279.66;;;4.28;100.00
25130;BME280;13308;50.860;13.664;2023-12-20T08:21:33;96278.88;;;4.38;100.00
25130;BME280;13308;50.860;13.664;2023-12-20T08:23:58;96282.00;;;4.40;100.00
25130;BME280;13308;50.860;13.664;2023-12-20T08:26:25;96289.03;;;4.41;100.00
25130;BME280;13308;50.860;13.664;2023-12-20T08:28:51;96278.50;;;4.36;100.00
25130;BME280;13308;50.860;13.664;2023-12-20T08:31:17;96279.28;;;4.36;100.00
25130;BME280;13308;50.860;13.664;2023-12-20T08:33:46;96284.72;;;4.40;100.00
25130;BME280;13308;50.860;13.664;2023-12-20T08:36:12;96280.44;;;4.42;100.00
25130;BME280;13308;50.860;13.664;2023-12-20T08:38:38;96280.44;;;4.39;100.00
25130;BME280;13308;50.860;13.664;2023-12-20T08:41:03;96273.03;;;4.39;100.00
25130;BME280;13308;50.860;13.664;2023-12-20T08:43:31;96271.84;;;4.44;100.00
25130;BME280;13308;50.860;13.664;2023-12-20T08:45:56;96277.31;;;4.44;100.00
25130;BME280;13308;50.860;13.664;2023-12-20T08:48:21;96268.75;;;4.42;100.00
25130;BME280;13308;50.860;13.664;2023-12-20T08:50:47;96275.75;;;4.46;100.00
25130;BME280;13308;50.860;13.664;2023-12-20T08:53:14;96283.91;;;4.60;100.00
25130;BME280;13308;50.860;13.664;2023-12-20T08:55:43;96283.19;;;4.49;100.00
25130;BME280;13308;50.860;13.664;2023-12-20T08:58:08;96287.47;;;4.47;100.00
25130;BME280;13308;50.860;13.664;2023-12-20T09:00:34;96279.66;;;4.49;100.00
25130;BME280;13308;50.860;13.664;2023-12-20T09:03:01;96288.63;;;4.46;100.00
25130;BME280;13308;50.860;13.664;2023-12-20T09:05:26;96299.16;;;4.40;100.00
25130;BME280;13308;50.860;13.664;2023-12-20T09:07:52;96292.91;;;4.36;100.00
25130;BME280;13308;50.860;13.664;2023-12-20T09:10:17;96293.72;;;4.33;100.00
25130;BME280;13308;50.860;13.664;2023-12-20T09:12:50;96298.75;;;4.31;100.00
25130;BME280;13308;50.860;13.664;2023-12-20T09:15:15;96299.19;;;4.30;100.00
25130;BME280;13308;50.860;13.664;2023-12-20T09:17:40;96289.81;;;4.31;100.00
25130;BME280;13308;50.860;13.664;2023-12-20T09:20:07;96296.06;;;4.38;100.00
25130;BME280;13308;50.860;13.664;2023-12-20T09:22:33;96295.66;;;4.54;100.00
25130;BME280;13308;50.860;13.664;2023-12-20T09:24:59;96303.44;;;4.48;100.00
25130;BME280;13308;50.860;13.664;2023-12-20T09:27:24;96319.44;;;4.50;100.00
25130;BME280;13308;50.860;13.664;2023-12-20T09:29:49;96317.88;;;4.52;100.00
25130;BME280;13308;50.860;13.664;2023-12-20T09:32:15;96314.75;;;4.54;100.00
25130;BME280;13308;50.860;13.664;2023-12-20T09:34:40;96308.50;;;4.60;100.00
25130;BME280;13308;50.860;13.664;2023-12-20T09:37:07;96314.38;;;4.55;100.00
25130;BME280;13308;50.860;13.664;2023-12-20T09:39:33;96305.78;;;4.57;100.00
25130;BME280;13308;50.860;13.664;2023-12-20T09:42:03;96296.03;;;4.56;100.00
25130;BME280;13308;50.860;13.664;2023-12-20T09:44:30;96291.72;;;4.69;100.00
25130;BME280;13308;50.860;13.664;2023-12-20T09:46:56;96289.63;;;5.18;100.00
25130;BME280;13308;50.860;13.664;2023-12-20T09:49:22;96289.34;;;5.78;100.00
25130;BME280;13308;50.860;13.664;2023-12-20T09:51:50;96280.50;;;6.14;100.00
25130;BME280;13308;50.860;13.664;2023-12-20T09:54:17;96282.56;;;6.51;100.00
25130;BME280;13308;50.860;13.664;2023-12-20T09:56:42;96287.22;;;6.54;100.00
25130;BME280;13308;50.860;13.664;2023-12-20T09:59:08;96274.59;;;6.67;100.00
25130;BME280;13308;50.860;13.664;2023-12-20T10:01:34;96273.50;;;6.98;100.00
25130;BME280;13308;50.860;13.664;2023-12-20T10:04:00;96279.69;;;7.02;100.00
25130;BME280;13308;50.860;13.664;2023-12-20T10:06:32;96279.81;;;6.54;100.00
25130;BME280;13308;50.860;13.664;2023-12-20T10:08:57;96279.41;;;6.56;100.00
25130;BME280;13308;50.860;13.664;2023-12-20T10:11:22;96282.00;;;6.26;100.00
25130;BME280;13308;50.860;13.664;2023-12-20T10:13:48;96269.78;;;5.83;100.00
25130;BME280;13308;50.860;13.664;2023-12-20T10:16:13;96260.56;;;5.56;100.00
25130;BME280;13308;50.860;13.664;2023-12-20T10:18:39;96261.06;;;5.37;100.00
25130;BME280;13308;50.860;13.664;2023-12-20T10:21:04;96252.81;;;5.44;100.00
25130;BME280;13308;50.860;13.664;2023-12-20T10:23:31;96238.69;;;5.56;100.00
25130;BME280;13308;50.860;13.664;2023-12-20T10:26:00;96241.72;;;5.72;100.00
25130;BME280;13308;50.860;13.664;2023-12-20T10:28:26;96237.50;;;5.57;100.00
25130;BME280;13308;50.860;13.664;2023-12-20T10:30:53;96239.44;;;6.14;100.00
25130;BME280;13308;50.860;13.664;2023-12-20T10:33:24;96241.53;;;6.00;100.00
25130;BME280;13308;50.860;13.664;2023-12-20T10:35:50;96244.03;;;6.28;100.00
25130;BME280;13308;50.860;13.664;2023-12-20T10:38:15;96235.41;;;6.33;100.00
25130;BME280;13308;50.860;13.664;2023-12-20T10:40:41;96235.94;;;6.58;100.00
25130;BME280;13308;50.860;13.664;2023-12-20T10:43:08;96226.25;;;6.50;100.00
25130;BME280;13308;50.860;13.664;2023-12-20T10:45:33;96229.13;;;6.73;100.00
25130;BME280;13308;50.860;13.664;2023-12-20T10:47:59;96228.31;;;6.76;100.00
25130;BME280;13308;50.860;13.664;2023-12-20T10:50:27;96214.84;;;6.55;100.00
25130;BME280;13308;50.860;13.664;2023-12-20T10:52:54;96220.66;;;6.20;100.00
25130;BME280;13308;50.860;13.664;2023-12-20T10:55:21;96223.25;;;5.90;100.00
25130;BME280;13308;50.860;13.664;2023-12-20T10:57:49;96231.34;;;6.04;100.00
25130;BME280;13308;50.860;13.664;2023-12-20T11:00:17;96227.19;;;6.33;100.00
25130;BME280;13308;50.860;13.664;2023-12-20T11:02:43;96211.31;;;6.14;100.00
25130;BME280;13308;50.860;13.664;2023-12-20T11:05:33;96210.09;;;6.18;100.00
25130;BME280;13308;50.860;13.664;2023-12-20T11:08:28;96200.25;;;5.73;100.00
25130;BME280;13308;50.860;13.664;2023-12-20T11:11:08;96189.28;;;5.77;100.00
25130;BME280;13308;50.860;13.664;2023-12-20T11:13:41;96196.38;;;5.71;100.00
25130;BME280;13308;50.860;13.664;2023-12-20T11:16:10;96196.38;;;5.71;100.00
25130;BME280;13308;50.860;13.664;2023-12-20T11:18:35;96210.47;;;5.69;100.00
25130;BME280;13308;50.860;13.664;2023-12-20T11:21:10;96212.81;;;5.64;100.00
25130;BME280;13308;50.860;13.664;2023-12-20T11:23:35;96204.25;;;5.62;100.00
25130;BME280;13308;50.860;13.664;2023-12-20T11:26:01;96184.69;;;5.67;100.00
25130;BME280;13308;50.860;13.664;2023-12-20T11:28:27;96185.16;;;6.06;100.00
25130;BME280;13308;50.860;13.664;2023-12-20T11:30:54;96182.69;;;6.22;100.00
25130;BME280;13308;50.860;13.664;2023-12-20T11:33:24;96182.84;;;6.82;100.00
25130;BME280;13308;50.860;13.664;2023-12-20T11:35:49;96182.69;;;6.92;100.00
25130;BME280;13308;50.860;13.664;2023-12-20T11:38:15;96180.72;;;7.26;100.00
25130;BME280;13308;50.860;13.664;2023-12-20T11:40:43;96183.81;;;7.55;100.00
25130;BME280;13308;50.860;13.664;2023-12-20T11:43:09;96178.78;;;7.50;100.00
25130;BME280;13308;50.860;13.664;2023-12-20T11:46:06;96188.47;;;6.68;100.00
25130;BME280;13308;50.860;13.664;2023-12-20T11:48:33;96181.31;;;6.44;100.00
25130;BME280;13308;50.860;13.664;2023-12-20T11:50:59;96174.91;;;6.17;100.00
25130;BME280;13308;50.860;13.664;2023-12-20T11:53:25;96160.31;;;5.90;100.00
25130;BME280;13308;50.860;13.664;2023-12-20T11:55:50;96170.53;;;5.79;100.00
25130;BME280;13308;50.860;13.664;2023-12-20T11:58:16;96168.56;;;5.86;100.00
25130;BME280;13308;50.860;13.664;2023-12-20T12:00:42;96176.78;;;5.76;100.00
25130;BME280;13308;50.860;13.664;2023-12-20T12:03:08;96167.47;;;5.70;100.00
25130;BME280;13308;50.860;13.664;2023-12-20T12:05:34;96165.16;;;5.65;100.00
25130;BME280;13308;50.860;13.664;2023-12-20T12:08:01;96164.66;;;5.84;100.00
25130;BME280;13308;50.860;13.664;2023-12-20T12:10:26;96164.72;;;6.21;100.00
25130;BME280;13308;50.860;13.664;2023-12-20T12:12:51;96165.66;;;6.78;100.00
25130;BME280;13308;50.860;13.664;2023-12-20T12:15:17;96164.13;;;7.07;100.00
25130;BME280;13308;50.860;13.664;2023-12-20T12:17:42;96156.69;;;7.07;99.78
25130;BME280;13308;50.860;13.664;2023-12-20T12:20:08;96156.16;;;7.16;98.66
25130;BME280;13308;50.860;13.664;2023-12-20T12:22:35;96152.47;;;7.79;97.21
25130;BME280;13308;50.860;13.664;2023-12-20T12:25:12;96153.41;;;7.46;95.69
25130;BME280;13308;50.860;13.664;2023-12-20T12:27:39;96155.66;;;7.77;94.51
25130;BME280;13308;50.860;13.664;2023-12-20T12:30:05;96144.19;;;7.59;94.81
25130;BME280;13308;50.860;13.664;2023-12-20T12:32:34;96138.47;;;7.73;93.29
25130;BME280;13308;50.860;13.664;2023-12-20T12:35:00;96130.00;;;7.87;92.68
25130;BME280;13308;50.860;13.664;2023-12-20T12:37:28;96124.03;;;7.43;94.87
25130;BME280;13308;50.860;13.664;2023-12-20T12:39:53;96127.06;;;7.25;96.95
25130;BME280;13308;50.860;13.664;2023-12-20T12:42:19;96118.94;;;6.88;97.88
25130;BME280;13308;50.860;13.664;2023-12-20T12:44:45;96128.31;;;6.57;100.00
25130;BME280;13308;50.860;13.664;2023-12-20T12:47:11;96109.63;;;6.52;100.00
25130;BME280;13308;50.860;13.664;2023-12-20T12:49:36;96119.50;;;6.43;100.00
25130;BME280;13308;50.860;13.664;2023-12-20T12:52:01;96115.44;;;6.21;100.00
25130;BME280;13308;50.860;13.664;2023-12-20T12:54:28;96116.25;;;6.51;100.00
25130;BME280;13308;50.860;13.664;2023-12-20T12:56:53;96106.47;;;6.17;100.00
25130;BME280;13308;50.860;13.664;2023-12-20T12:59:18;96103.19;;;5.95;100.00
25130;BME280;13308;50.860;13.664;2023-12-20T13:01:44;96111.09;;;5.86;100.00
25130;BME280;13308;50.860;13.664;2023-12-20T13:04:09;96098.72;;;5.68;100.00
25130;BME280;13308;50.860;13.664;2023-12-20T13:06:39;96101.50;;;5.61;100.00
25130;BME280;13308;50.860;13.664;2023-12-20T13:09:05;96101.13;;;5.59;100.00
25130;BME280;13308;50.860;13.664;2023-12-20T13:11:31;96103.81;;;5.62;100.00
25130;BME280;13308;50.860;13.664;2023-12-20T13:13:57;96091.00;;;5.56;100.00
25130;BME280;13308;50.860;13.664;2023-12-20T13:16:26;96091.44;;;5.51;100.00
25130;BME280;13308;50.860;13.664;2023-12-20T13:18:51;96096.09;;;5.50;100.00
25130;BME280;13308;50.860;13.664;2023-12-20T13:21:16;96089.50;;;5.48;100.00
25130;BME280;13308;50.860;13.664;2023-12-20T13:23:42;96072.41;;;5.37;100.00
25130;BME280;13308;50.860;13.664;2023-12-20T13:26:07;96068.44;;;5.45;100.00
25130;BME280;13308;50.860;13.664;2023-12-20T13:28:33;96056.66;;;5.51;100.00
25130;BME280;13308;50.860;13.664;2023-12-20T13:30:58;96055.50;;;6.60;100.00
25130;BME280;13308;50.860;13.664;2023-12-20T13:33:23;96053.84;;;6.66;100.00
25130;BME280;13308;50.860;13.664;2023-12-20T13:35:49;96055.53;;;6.56;100.00
25130;BME280;13308;50.860;13.664;2023-12-20T13:38:14;96050.38;;;5.95;100.00
25130;BME280;13308;50.860;13.664;2023-12-20T13:40:39;96047.84;;;5.74;100.00
25130;BME280;13308;50.860;13.664;2023-12-20T13:43:05;96039.72;;;5.67;100.00
25130;BME280;13308;50.860;13.664;2023-12-20T13:45:31;96038.69;;;5.54;100.00
25130;BME280;13308;50.860;13.664;2023-12-20T13:47:56;96031.59;;;5.60;100.00
25130;BME280;13308;50.860;13.664;2023-12-20T13:50:21;96048.03;;;5.53;100.00
25130;BME280;13308;50.860;13.664;2023-12-20T13:52:47;96054.13;;;5.71;100.00
25130;BME280;13308;50.860;13.664;2023-12-20T13:55:13;96047.22;;;5.59;100.00
25130;BME280;13308;50.860;13.664;2023-12-20T13:57:38;96050.41;;;5.51;100.00
25130;BME280;13308;50.860;13.664;2023-12-20T14:00:05;96035.19;;;5.50;100.00
25130;BME280;13308;50.860;13.664;2023-12-20T14:02:32;96042.69;;;5.39;100.00
25130;BME280;13308;50.860;13.664;2023-12-20T14:04:57;96032.94;;;5.38;100.00
25130;BME280;13308;50.860;13.664;2023-12-20T14:07:23;96025.53;;;5.35;100.00
25130;BME280;13308;50.860;13.664;2023-12-20T14:09:48;96030.66;;;5.33;100.00
25130;BME280;13308;50.860;13.664;2023-12-20T14:12:14;96040.06;;;5.28;100.00
25130;BME280;13308;50.860;13.664;2023-12-20T14:14:40;96028.75;;;5.26;100.00
25130;BME280;13308;50.860;13.664;2023-12-20T14:17:05;96032.69;;;5.22;100.00
25130;BME280;13308;50.860;13.664;2023-12-20T14:19:34;96037.41;;;5.18;100.00
25130;BME280;13308;50.860;13.664;2023-12-20T14:21:59;96032.75;;;5.15;100.00
25130;BME280;13308;50.860;13.664;2023-12-20T14:24:27;96047.53;;;5.21;100.00
25130;BME280;13308;50.860;13.664;2023-12-20T14:26:52;96032.69;;;5.22;100.00
25130;BME280;13308;50.860;13.664;2023-12-20T14:29:18;96036.97;;;5.23;100.00
25130;BME280;13308;50.860;13.664;2023-12-20T14:31:43;96029.94;;;5.25;100.00
25130;BME280;13308;50.860;13.664;2023-12-20T14:34:09;96025.28;;;5.22;100.00
25130;BME280;13308;50.860;13.664;2023-12-20T14:36:34;96025.63;;;5.24;100.00
25130;BME280;13308;50.860;13.664;2023-12-20T14:39:00;96023.28;;;5.26;100.00
25130;BME280;13308;50.860;13.664;2023-12-20T14:41:26;96027.16;;;5.29;100.00
25130;BME280;13308;50.860;13.664;2023-12-20T14:43:52;96029.13;;;5.28;100.00
25130;BME280;13308;50.860;13.664;2023-12-20T14:46:18;96029.50;;;5.30;100.00
25130;BME280;13308;50.860;13.664;2023-12-20T14:48:44;96027.91;;;5.33;100.00
25130;BME280;13308;50.860;13.664;2023-12-20T14:51:09;96027.56;;;5.31;100.00
25130;BME280;13308;50.860;13.664;2023-12-20T14:53:35;96029.50;;;5.30;100.00
25130;BME280;13308;50.860;13.664;2023-12-20T14:56:03;96027.16;;;5.29;100.00
25130;BME280;13308;50.860;13.664;2023-12-20T14:58:29;96027.59;;;5.27;100.00
25130;BME280;13308;50.860;13.664;2023-12-20T15:00:55;96029.56;;;5.23;100.00
25130;BME280;13308;50.860;13.664;2023-12-20T15:03:21;96028.78;;;5.23;100.00
25130;BME280;13308;50.860;13.664;2023-12-20T15:05:46;96020.97;;;5.25;100.00
25130;BME280;13308;50.860;13.664;2023-12-20T15:08:13;96026.03;;;5.23;100.00
25130;BME280;13308;50.860;13.664;2023-12-20T15:10:39;96018.59;;;5.27;100.00
25130;BME280;13308;50.860;13.664;2023-12-20T15:13:04;96034.63;;;5.25;100.00
25130;BME280;13308;50.860;13.664;2023-12-20T15:15:29;96015.88;;;5.27;100.00
25130;BME280;13308;50.860;13.664;2023-12-20T15:17:54;96034.22;;;5.23;100.00
25130;BME280;13308;50.860;13.664;2023-12-20T15:20:20;96027.97;;;5.26;100.00
25130;BME280;13308;50.860;13.664;2023-12-20T15:22:45;96037.38;;;5.25;100.00
25130;BME280;13308;50.860;13.664;2023-12-20T15:25:11;96034.22;;;5.23;100.00
25130;BME280;13308;50.860;13.664;2023-12-20T15:27:37;96027.22;;;5.22;100.00
25130;BME280;13308;50.860;13.664;2023-12-20T15:30:04;96013.94;;;5.20;100.00
25130;BME280;13308;50.860;13.664;2023-12-20T15:32:30;96029.94;;;5.22;100.00
25130;BME280;13308;50.860;13.664;2023-12-20T15:34:57;96013.22;;;5.16;100.00
25130;BME280;13308;50.860;13.664;2023-12-20T15:37:23;96017.09;;;5.19;100.00
25130;BME280;13308;50.860;13.664;2023-12-20T15:39:51;96039.38;;;5.17;100.00
25130;BME280;13308;50.860;13.664;2023-12-20T15:42:17;96035.41;;;5.22;100.00
25130;BME280;13308;50.860;13.664;2023-12-20T15:44:42;96040.09;;;5.25;100.00
25130;BME280;13308;50.860;13.664;2023-12-20T15:47:07;96029.16;;;5.25;100.00
25130;BME280;13308;50.860;13.664;2023-12-20T15:49:33;96028.81;;;5.19;100.00
25130;BME280;13308;50.860;13.664;2023-12-20T15:51:58;96033.94;;;5.14;100.00
25130;BME280;13308;50.860;13.664;2023-12-20T15:54:23;96037.03;;;5.16;100.00
25130;BME280;13308;50.860;13.664;2023-12-20T15:56:49;96022.97;;;5.17;100.00
25130;BME280;13308;50.860;13.664;2023-12-20T15:59:14;96029.22;;;5.14;100.00
25130;BME280;13308;50.860;13.664;2023-12-20T16:01:39;96028.84;;;5.16;100.00
25130;BME280;13308;50.860;13.664;2023-12-20T16:04:05;96020.69;;;5.09;100.00
25130;BME280;13308;50.860;13.664;2023-12-20T16:06:30;96034.66;;;5.21;100.00
25130;BME280;13308;50.860;13.664;2023-12-20T16:08:55;96047.53;;;5.21;100.00
25130;BME280;13308;50.860;13.664;2023-12-20T16:11:21;96043.63;;;5.22;100.00
25130;BME280;13308;50.860;13.664;2023-12-20T16:13:46;96051.44;;;5.20;100.00
25130;BME280;13308;50.860;13.664;2023-12-20T16:16:12;96043.63;;;5.22;100.00
25130;BME280;13308;50.860;13.664;2023-12-20T16:18:37;96048.34;;;5.14;100.00
25130;BME280;13308;50.860;13.664;2023-12-20T16:21:03;96030.34;;;5.24;100.00
25130;BME280;13308;50.860;13.664;2023-12-20T16:23:29;96042.88;;;5.18;100.00
25130;BME280;13308;50.860;13.664;2023-12-20T16:25:54;96047.53;;;5.21;100.00
25130;BME280;13308;50.860;13.664;2023-12-20T16:28:20;96055.78;;;5.14;100.00
25130;BME280;13308;50.860;13.664;2023-12-20T16:30:45;96051.44;;;5.20;100.00
25130;BME280;13308;50.860;13.664;2023-12-20T16:33:11;96053.41;;;5.19;100.00
25130;BME280;13308;50.860;13.664;2023-12-20T16:35:37;96057.69;;;5.20;100.00
25130;BME280;13308;50.860;13.664;2023-12-20T16:38:02;96058.47;;;5.21;100.00
25130;BME280;13308;50.860;13.664;2023-12-20T16:40:27;96049.88;;;5.22;100.00
25130;BME280;13308;50.860;13.664;2023-12-20T16:42:53;96063.16;;;5.24;100.00
25130;BME280;13308;50.860;13.664;2023-12-20T16:45:22;96060.03;;;5.22;100.00
25130;BME280;13308;50.860;13.664;2023-12-20T16:47:48;96055.38;;;5.19;100.00
25130;BME280;13308;50.860;13.664;2023-12-20T16:50:13;96055.38;;;5.19;100.00
25130;BME280;13308;50.860;13.664;2023-12-20T16:52:39;96063.16;;;5.24;100.00
25130;BME280;13308;50.860;13.664;2023-12-20T16:55:07;96056.03;;;5.33;100.00
25130;BME280;13308;50.860;13.664;2023-12-20T16:57:33;96052.88;;;5.35;100.00
25130;BME280;13308;50.860;13.664;2023-12-20T16:59:58;96058.72;;;5.40;100.00
25130;BME280;13308;50.860;13.664;2023-12-20T17:02:24;96059.06;;;5.42;100.00
25130;BME280;13308;50.860;13.664;2023-12-20T17:04:49;96054.00;;;5.41;100.00
25130;BME280;13308;50.860;13.664;2023-12-20T17:07:14;96053.59;;;5.42;100.00
25130;BME280;13308;50.860;13.664;2023-12-20T17:09:40;96046.94;;;5.43;100.00
25130;BME280;13308;50.860;13.664;2023-12-20T17:12:06;96039.19;;;5.38;100.00
25130;BME280;13308;50.860;13.664;2023-12-20T17:14:33;96052.88;;;5.35;100.00
25130;BME280;13308;50.860;13.664;2023-12-20T17:16:58;96043.13;;;5.34;100.00
25130;BME280;13308;50.860;13.664;2023-12-20T17:19:23;96043.50;;;5.39;100.00
25130;BME280;13308;50.860;13.664;2023-12-20T17:21:49;96053.25;;;5.40;100.00
25130;BME280;13308;50.860;13.664;2023-12-20T17:24:16;96052.06;;;5.41;100.00
25130;BME280;13308;50.860;13.664;2023-12-20T17:26:41;96054.44;;;5.39;100.00
25130;BME280;13308;50.860;13.664;2023-12-20T17:29:06;96050.53;;;5.37;100.00
25130;BME280;13308;50.860;13.664;2023-12-20T17:31:31;96035.69;;;5.38;100.00
25130;BME280;13308;50.860;13.664;2023-12-20T17:33:57;96049.00;;;5.36;100.00
25130;BME280;13308;50.860;13.664;2023-12-20T17:36:22;96046.22;;;5.39;100.00
25130;BME280;13308;50.860;13.664;2023-12-20T17:38:48;96051.34;;;5.34;100.00
25130;BME280;13308;50.860;13.664;2023-12-20T17:41:13;96063.88;;;5.28;100.00
25130;BME280;13308;50.860;13.664;2023-12-20T17:43:39;96038.50;;;5.31;100.00
25130;BME280;13308;50.860;13.664;2023-12-20T17:46:04;96047.16;;;5.19;100.00
25130;BME280;13308;50.860;13.664;2023-12-20T17:48:29;96042.88;;;5.18;100.00
25130;BME280;13308;50.860;13.664;2023-12-20T17:50:54;96042.13;;;5.14;100.00
25130;BME280;13308;50.860;13.664;2023-12-20T17:53:20;96033.13;;;5.13;100.00
25130;BME280;13308;50.860;13.664;2023-12-20T17:55:45;96050.75;;;5.09;100.00
25130;BME280;13308;50.860;13.664;2023-12-20T17:58:10;96036.72;;;5.07;100.00
25130;BME280;13308;50.860;13.664;2023-12-20T18:00:36;96038.69;;;5.03;100.00
25130;BME280;13308;50.860;13.664;2023-12-20T18:03:02;96044.22;;;4.96;100.00
25130;BME280;13308;50.860;13.664;2023-12-20T18:05:27;96042.66;;;4.95;100.00
25130;BME280;13308;50.860;13.664;2023-12-20T18:07:53;96035.19;;;4.99;100.00
25130;BME280;13308;50.860;13.664;2023-12-20T18:10:19;96049.28;;;4.97;100.00
25130;BME280;13308;50.860;13.664;2023-12-20T18:12:45;96053.59;;;4.95;100.00
25130;BME280;13308;50.860;13.664;2023-12-20T18:15:12;96039.47;;;5.00;100.00
25130;BME280;13308;50.860;13.664;2023-12-20T18:17:37;96063.69;;;4.98;100.00
25130;BME280;13308;50.860;13.664;2023-12-20T18:20:03;96055.50;;;4.98;100.00
25130;BME280;13308;50.860;13.664;2023-12-20T18:22:29;96036.00;;;4.96;100.00
25130;BME280;13308;50.860;13.664;2023-12-20T18:24:54;96041.47;;;4.96;100.00
25130;BME280;13308;50.860;13.664;2023-12-20T18:27:21;96047.72;;;4.93;100.00
25130;BME280;13308;50.860;13.664;2023-12-20T18:29:47;96048.53;;;4.93;100.00
25130;BME280;13308;50.860;13.664;2023-12-20T18:32:12;96038.41;;;4.87;100.00
25130;BME280;13308;50.860;13.664;2023-12-20T18:34:37;96047.00;;;4.89;100.00
25130;BME280;13308;50.860;13.664;2023-12-20T18:37:03;96054.41;;;4.88;100.00
25130;BME280;13308;50.860;13.664;2023-12-20T18:39:32;96054.78;;;4.87;100.00
25130;BME280;13308;50.860;13.664;2023-12-20T18:41:57;96048.56;;;4.86;100.00
25130;BME280;13308;50.860;13.664;2023-12-20T18:44:22;96066.50;;;4.87;100.00
25130;BME280;13308;50.860;13.664;2023-12-20T18:46:48;96061.81;;;4.88;100.00
25130;BME280;13308;50.860;13.664;2023-12-20T18:49:13;96052.47;;;4.82;100.00
25130;BME280;13308;50.860;13.664;2023-12-20T18:51:39;96072.03;;;4.77;100.00
25130;BME280;13308;50.860;13.664;2023-12-20T18:54:04;96050.16;;;4.80;100.00
25130;BME280;13308;50.860;13.664;2023-12-20T18:56:29;96049.06;;;4.71;100.00
25130;BME280;13308;50.860;13.664;2023-12-20T18:58:55;96043.19;;;4.69;100.00
25130;BME280;13308;50.860;13.664;2023-12-20T19:01:21;96045.94;;;4.65;100.00
25130;BME280;13308;50.860;13.664;2023-12-20T19:03:46;96046.34;;;4.64;100.00
25130;BME280;13308;50.860;13.664;2023-12-20T19:06:11;96033.91;;;4.59;100.00
25130;BME280;13308;50.860;13.664;2023-12-20T19:08:37;96045.22;;;4.58;100.00
25130;BME280;13308;50.860;13.664;2023-12-20T19:11:04;96032.75;;;4.57;100.00
25130;BME280;13308;50.860;13.664;2023-12-20T19:13:30;96042.47;;;4.58;100.00